sensor_id;sensor_type;location;lat;lon;timestamp;P1;durP1;ratioP1;P2;durP2;ratioP2
14778;SDS011;7481;53.750;10.570;2023-05-10T00:00:31;4.73;;;2.93;;
14778;SDS011;7481;53.750;10.570;2023-05-10T00:03:19;5.53;;;2.97;;
14778;SDS011;7481;53.750;10.570;2023-05-10T00:06:06;3.90;;;2.90;;
14778;SDS011;7481;53.750;10.570;2023-05-10T00:08:54;7.47;;;3.60;;
14778;SDS011;7481;53.750;10.570;2023-05-10T00:11:41;6.50;;;3.27;;
14778;SDS011;7481;53.750;10.570;2023-05-10T00:14:28;4.33;;;3.50;;
14778;SDS011;7481;53.750;10.570;2023-05-10T00:17:16;4.90;;;3.23;;
14778;SDS011;7481;53.750;10.570;2023-05-10T00:20:04;5.30;;;3.40;;
14778;SDS011;7481;53.750;10.570;2023-05-10T00:22:51;5.90;;;3.23;;
14778;SDS011;7481;53.750;10.570;2023-05-10T00:25:39;7.83;;;3.40;;
14778;SDS011;7481;53.750;10.570;2023-05-10T00:28:27;4.13;;;2.87;;
14778;SDS011;7481;53.750;10.570;2023-05-10T00:31:15;5.83;;;3.00;;
14778;SDS011;7481;53.750;10.570;2023-05-10T00:34:02;4.90;;;3.30;;
14778;SDS011;7481;53.750;10.570;2023-05-10T00:36:49;6.43;;;3.43;;
14778;SDS011;7481;53.750;10.570;2023-05-10T00:39:37;3.43;;;3.10;;
14778;SDS011;7481;53.750;10.570;2023-05-10T00:42:24;5.80;;;3.40;;
14778;SDS011;7481;53.750;10.570;2023-05-10T00:45:12;7.93;;;3.60;;
14778;SDS011;7481;53.750;10.570;2023-05-10T00:48:01;3.83;;;3.40;;
14778;SDS011;7481;53.750;10.570;2023-05-10T00:50:50;4.80;;;3.13;;
14778;SDS011;7481;53.750;10.570;2023-05-10T00:53:37;4.00;;;2.70;;
14778;SDS011;7481;53.750;10.570;2023-05-10T00:56:25;5.40;;;3.17;;
14778;SDS011;7481;53.750;10.570;2023-05-10T00:59:12;7.90;;;3.40;;
14778;SDS011;7481;53.750;10.570;2023-05-10T01:01:59;4.43;;;3.30;;
14778;SDS011;7481;53.750;10.570;2023-05-10T01:04:47;7.27;;;3.20;;
14778;SDS011;7481;53.750;10.570;2023-05-10T01:07:35;5.20;;;3.33;;
14778;SDS011;7481;53.750;10.570;2023-05-10T01:10:23;5.60;;;3.57;;
14778;SDS011;7481;53.750;10.570;2023-05-10T01:13:10;3.70;;;3.10;;
14778;SDS011;7481;53.750;10.570;2023-05-10T01:15:58;4.40;;;3.50;;
14778;SDS011;7481;53.750;10.570;2023-05-10T01:18:48;5.50;;;3.20;;
14778;SDS011;7481;53.750;10.570;2023-05-10T01:33:35;6.57;;;3.23;;
14778;SDS011;7481;53.750;10.570;2023-05-10T01:39:17;3.80;;;3.50;;
14778;SDS011;7481;53.750;10.570;2023-05-10T01:42:09;6.37;;;3.50;;
14778;SDS011;7481;53.750;10.570;2023-05-10T01:47:50;4.70;;;3.37;;
14778;SDS011;7481;53.750;10.570;2023-05-10T01:50:43;4.53;;;3.57;;
14778;SDS011;7481;53.750;10.570;2023-05-10T01:53:30;6.93;;;3.17;;
14778;SDS011;7481;53.750;10.570;2023-05-10T01:56:19;4.37;;;3.40;;
14778;SDS011;7481;53.750;10.570;2023-05-10T01:59:13;3.93;;;3.07;;
14778;SDS011;7481;53.750;10.570;2023-05-10T02:02:02;5.03;;;3.47;;
14778;SDS011;7481;53.750;10.570;2023-05-10T02:04:51;4.93;;;3.83;;
14778;SDS011;7481;53.750;10.570;2023-05-10T02:07:40;6.00;;;3.53;;
14778;SDS011;7481;53.750;10.570;2023-05-10T02:10:28;6.33;;;3.83;;
14778;SDS011;7481;53.750;10.570;2023-05-10T02:13:16;6.80;;;3.67;;
14778;SDS011;7481;53.750;10.570;2023-05-10T02:16:04;4.60;;;3.53;;
14778;SDS011;7481;53.750;10.570;2023-05-10T02:18:52;7.07;;;3.23;;
14778;SDS011;7481;53.750;10.570;2023-05-10T02:21:40;5.30;;;3.67;;
14778;SDS011;7481;53.750;10.570;2023-05-10T02:24:28;7.17;;;3.20;;
14778;SDS011;7481;53.750;10.570;2023-05-10T02:27:16;5.10;;;3.43;;
14778;SDS011;7481;53.750;10.570;2023-05-10T02:30:04;5.97;;;3.67;;
14778;SDS011;7481;53.750;10.570;2023-05-10T02:32:52;3.60;;;3.30;;
14778;SDS011;7481;53.750;10.570;2023-05-10T02:35:40;5.33;;;3.63;;
14778;SDS011;7481;53.750;10.570;2023-05-10T02:38:28;4.27;;;3.40;;
14778;SDS011;7481;53.750;10.570;2023-05-10T02:41:15;4.03;;;3.33;;
14778;SDS011;7481;53.750;10.570;2023-05-10T02:44:03;6.07;;;3.70;;
14778;SDS011;7481;53.750;10.570;2023-05-10T02:46:54;7.57;;;4.17;;
14778;SDS011;7481;53.750;10.570;2023-05-10T02:49:42;5.50;;;3.33;;
14778;SDS011;7481;53.750;10.570;2023-05-10T02:52:30;5.43;;;4.10;;
14778;SDS011;7481;53.750;10.570;2023-05-10T02:55:23;6.00;;;3.47;;
14778;SDS011;7481;53.750;10.570;2023-05-10T02:58:12;7.07;;;3.60;;
14778;SDS011;7481;53.750;10.570;2023-05-10T03:01:00;4.37;;;3.57;;
14778;SDS011;7481;53.750;10.570;2023-05-10T03:03:47;7.73;;;3.57;;
14778;SDS011;7481;53.750;10.570;2023-05-10T03:06:34;4.03;;;3.63;;
14778;SDS011;7481;53.750;10.570;2023-05-10T03:09:22;4.10;;;3.50;;
14778;SDS011;7481;53.750;10.570;2023-05-10T03:15:11;4.40;;;3.43;;
14778;SDS011;7481;53.750;10.570;2023-05-10T03:20:49;4.17;;;3.57;;
14778;SDS011;7481;53.750;10.570;2023-05-10T03:23:41;5.03;;;3.50;;
14778;SDS011;7481;53.750;10.570;2023-05-10T03:26:30;5.50;;;3.87;;
14778;SDS011;7481;53.750;10.570;2023-05-10T03:29:18;6.40;;;4.17;;
14778;SDS011;7481;53.750;10.570;2023-05-10T03:32:06;3.83;;;3.43;;
14778;SDS011;7481;53.750;10.570;2023-05-10T03:34:53;5.83;;;3.73;;
14778;SDS011;7481;53.750;10.570;2023-05-10T03:37:41;5.77;;;3.70;;
14778;SDS011;7481;53.750;10.570;2023-05-10T03:40:28;6.37;;;3.67;;
14778;SDS011;7481;53.750;10.570;2023-05-10T03:43:17;5.90;;;3.83;;
14778;SDS011;7481;53.750;10.570;2023-05-10T03:46:05;5.33;;;4.00;;
14778;SDS011;7481;53.750;10.570;2023-05-10T03:48:52;5.77;;;4.10;;
14778;SDS011;7481;53.750;10.570;2023-05-10T03:51:40;5.30;;;3.90;;
14778;SDS011;7481;53.750;10.570;2023-05-10T03:54:27;4.87;;;3.90;;
14778;SDS011;7481;53.750;10.570;2023-05-10T03:57:14;5.20;;;4.17;;
14778;SDS011;7481;53.750;10.570;2023-05-10T04:00:02;5.47;;;3.43;;
14778;SDS011;7481;53.750;10.570;2023-05-10T04:02:50;4.73;;;3.90;;
14778;SDS011;7481;53.750;10.570;2023-05-10T04:05:37;4.60;;;3.37;;
14778;SDS011;7481;53.750;10.570;2023-05-10T04:08:25;5.17;;;3.70;;
14778;SDS011;7481;53.750;10.570;2023-05-10T04:11:12;5.63;;;4.03;;
14778;SDS011;7481;53.750;10.570;2023-05-10T04:14:00;4.67;;;4.07;;
14778;SDS011;7481;53.750;10.570;2023-05-10T04:16:47;7.82;;;4.35;;
14778;SDS011;7481;53.750;10.570;2023-05-10T04:19:35;6.28;;;4.30;;
14778;SDS011;7481;53.750;10.570;2023-05-10T04:22:23;4.97;;;4.23;;
14778;SDS011;7481;53.750;10.570;2023-05-10T04:25:10;8.20;;;4.33;;
14778;SDS011;7481;53.750;10.570;2023-05-10T04:27:58;8.53;;;4.17;;
14778;SDS011;7481;53.750;10.570;2023-05-10T04:30:45;5.30;;;4.00;;
14778;SDS011;7481;53.750;10.570;2023-05-10T04:33:33;4.50;;;3.73;;
14778;SDS011;7481;53.750;10.570;2023-05-10T04:36:21;4.90;;;4.13;;
14778;SDS011;7481;53.750;10.570;2023-05-10T04:39:09;6.10;;;4.23;;
14778;SDS011;7481;53.750;10.570;2023-05-10T04:41:56;5.87;;;4.23;;
14778;SDS011;7481;53.750;10.570;2023-05-10T04:44:44;4.97;;;3.80;;
14778;SDS011;7481;53.750;10.570;2023-05-10T04:47:31;5.97;;;4.20;;
14778;SDS011;7481;53.750;10.570;2023-05-10T04:50:19;4.67;;;3.93;;
14778;SDS011;7481;53.750;10.570;2023-05-10T04:53:06;4.67;;;4.17;;
14778;SDS011;7481;53.750;10.570;2023-05-10T04:55:54;6.43;;;4.55;;
14778;SDS011;7481;53.750;10.570;2023-05-10T04:58:41;5.40;;;4.37;;
14778;SDS011;7481;53.750;10.570;2023-05-10T05:01:28;6.90;;;4.33;;
14778;SDS011;7481;53.750;10.570;2023-05-10T05:04:16;9.63;;;4.80;;
14778;SDS011;7481;53.750;10.570;2023-05-10T05:07:03;7.83;;;4.17;;
14778;SDS011;7481;53.750;10.570;2023-05-10T05:09:51;9.60;;;3.97;;
14778;SDS011;7481;53.750;10.570;2023-05-10T05:12:38;4.60;;;3.87;;
14778;SDS011;7481;53.750;10.570;2023-05-10T05:15:25;8.03;;;4.37;;
14778;SDS011;7481;53.750;10.570;2023-05-10T05:18:13;5.20;;;4.10;;
14778;SDS011;7481;53.750;10.570;2023-05-10T05:21:01;5.37;;;4.03;;
14778;SDS011;7481;53.750;10.570;2023-05-10T05:23:48;4.90;;;4.20;;
14778;SDS011;7481;53.750;10.570;2023-05-10T05:26:35;5.80;;;4.07;;
14778;SDS011;7481;53.750;10.570;2023-05-10T05:29:23;5.90;;;4.07;;
14778;SDS011;7481;53.750;10.570;2023-05-10T05:32:10;4.43;;;3.97;;
14778;SDS011;7481;53.750;10.570;2023-05-10T05:34:58;4.83;;;4.30;;
14778;SDS011;7481;53.750;10.570;2023-05-10T05:37:45;6.77;;;4.17;;
14778;SDS011;7481;53.750;10.570;2023-05-10T05:40:33;6.63;;;4.00;;
14778;SDS011;7481;53.750;10.570;2023-05-10T05:43:20;4.67;;;4.17;;
14778;SDS011;7481;53.750;10.570;2023-05-10T05:46:08;5.20;;;4.40;;
14778;SDS011;7481;53.750;10.570;2023-05-10T05:48:55;4.70;;;3.97;;
14778;SDS011;7481;53.750;10.570;2023-05-10T05:51:43;5.90;;;4.60;;
14778;SDS011;7481;53.750;10.570;2023-05-10T05:54:31;4.93;;;3.70;;
14778;SDS011;7481;53.750;10.570;2023-05-10T05:57:18;7.07;;;4.57;;
14778;SDS011;7481;53.750;10.570;2023-05-10T06:00:06;5.93;;;4.30;;
14778;SDS011;7481;53.750;10.570;2023-05-10T06:02:53;6.83;;;4.20;;
14778;SDS011;7481;53.750;10.570;2023-05-10T06:05:41;8.00;;;4.20;;
14778;SDS011;7481;53.750;10.570;2023-05-10T06:08:28;7.70;;;3.83;;
14778;SDS011;7481;53.750;10.570;2023-05-10T06:11:16;6.80;;;3.90;;
14778;SDS011;7481;53.750;10.570;2023-05-10T06:14:03;5.93;;;4.13;;
14778;SDS011;7481;53.750;10.570;2023-05-10T06:16:53;5.43;;;4.35;;
14778;SDS011;7481;53.750;10.570;2023-05-10T06:19:41;4.82;;;4.25;;
14778;SDS011;7481;53.750;10.570;2023-05-10T06:22:28;5.80;;;3.70;;
14778;SDS011;7481;53.750;10.570;2023-05-10T06:25:16;7.55;;;4.40;;
14778;SDS011;7481;53.750;10.570;2023-05-10T06:28:04;5.32;;;4.10;;
14778;SDS011;7481;53.750;10.570;2023-05-10T06:30:52;4.18;;;3.75;;
14778;SDS011;7481;53.750;10.570;2023-05-10T06:33:39;6.07;;;4.15;;
14778;SDS011;7481;53.750;10.570;2023-05-10T06:36:27;4.40;;;4.00;;
14778;SDS011;7481;53.750;10.570;2023-05-10T06:39:14;5.35;;;4.07;;
14778;SDS011;7481;53.750;10.570;2023-05-10T06:42:02;6.13;;;3.92;;
14778;SDS011;7481;53.750;10.570;2023-05-10T06:44:51;6.05;;;4.20;;
14778;SDS011;7481;53.750;10.570;2023-05-10T06:47:38;4.65;;;3.88;;
14778;SDS011;7481;53.750;10.570;2023-05-10T06:50:25;4.95;;;4.40;;
14778;SDS011;7481;53.750;10.570;2023-05-10T06:53:13;5.03;;;4.25;;
14778;SDS011;7481;53.750;10.570;2023-05-10T06:56:01;4.13;;;3.72;;
14778;SDS011;7481;53.750;10.570;2023-05-10T06:58:50;4.53;;;3.67;;
14778;SDS011;7481;53.750;10.570;2023-05-10T07:01:37;7.13;;;4.28;;
14778;SDS011;7481;53.750;10.570;2023-05-10T07:04:24;4.32;;;3.85;;
14778;SDS011;7481;53.750;10.570;2023-05-10T07:07:12;5.57;;;3.90;;
14778;SDS011;7481;53.750;10.570;2023-05-10T07:09:59;4.75;;;4.00;;
14778;SDS011;7481;53.750;10.570;2023-05-10T07:12:47;9.07;;;4.00;;
14778;SDS011;7481;53.750;10.570;2023-05-10T07:15:35;5.22;;;4.00;;
14778;SDS011;7481;53.750;10.570;2023-05-10T07:18:22;4.97;;;3.67;;
14778;SDS011;7481;53.750;10.570;2023-05-10T07:21:10;5.13;;;3.92;;
14778;SDS011;7481;53.750;10.570;2023-05-10T07:23:57;4.85;;;3.88;;
14778;SDS011;7481;53.750;10.570;2023-05-10T07:26:46;4.50;;;4.03;;
14778;SDS011;7481;53.750;10.570;2023-05-10T07:29:33;4.18;;;3.78;;
14778;SDS011;7481;53.750;10.570;2023-05-10T07:32:20;5.50;;;4.13;;
14778;SDS011;7481;53.750;10.570;2023-05-10T07:35:08;4.20;;;3.80;;
14778;SDS011;7481;53.750;10.570;2023-05-10T07:37:56;4.93;;;3.85;;
14778;SDS011;7481;53.750;10.570;2023-05-10T07:40:43;8.45;;;4.40;;
14778;SDS011;7481;53.750;10.570;2023-05-10T07:43:30;5.18;;;4.10;;
14778;SDS011;7481;53.750;10.570;2023-05-10T07:46:18;5.65;;;3.78;;
14778;SDS011;7481;53.750;10.570;2023-05-10T07:49:06;5.60;;;4.25;;
14778;SDS011;7481;53.750;10.570;2023-05-10T07:51:53;4.50;;;3.88;;
14778;SDS011;7481;53.750;10.570;2023-05-10T07:54:40;4.82;;;3.78;;
14778;SDS011;7481;53.750;10.570;2023-05-10T07:57:28;5.05;;;4.47;;
14778;SDS011;7481;53.750;10.570;2023-05-10T08:00:18;6.15;;;3.55;;
14778;SDS011;7481;53.750;10.570;2023-05-10T08:03:06;5.25;;;4.00;;
14778;SDS011;7481;53.750;10.570;2023-05-10T08:05:54;5.53;;;4.00;;
14778;SDS011;7481;53.750;10.570;2023-05-10T08:08:41;6.95;;;3.80;;
14778;SDS011;7481;53.750;10.570;2023-05-10T08:11:29;5.15;;;4.00;;
14778;SDS011;7481;53.750;10.570;2023-05-10T08:14:17;5.65;;;4.05;;
14778;SDS011;7481;53.750;10.570;2023-05-10T08:17:05;5.28;;;3.60;;
14778;SDS011;7481;53.750;10.570;2023-05-10T08:19:52;5.30;;;3.97;;
14778;SDS011;7481;53.750;10.570;2023-05-10T08:22:40;7.22;;;4.10;;
14778;SDS011;7481;53.750;10.570;2023-05-10T08:25:27;5.57;;;3.78;;
14778;SDS011;7481;53.750;10.570;2023-05-10T08:28:15;4.80;;;4.03;;
14778;SDS011;7481;53.750;10.570;2023-05-10T08:31:02;4.47;;;4.00;;
14778;SDS011;7481;53.750;10.570;2023-05-10T08:33:49;5.60;;;4.30;;
14778;SDS011;7481;53.750;10.570;2023-05-10T08:36:38;4.30;;;3.90;;
14778;SDS011;7481;53.750;10.570;2023-05-10T08:39:26;4.18;;;3.78;;
14778;SDS011;7481;53.750;10.570;2023-05-10T08:42:16;5.30;;;3.63;;
14778;SDS011;7481;53.750;10.570;2023-05-10T08:45:07;5.65;;;4.03;;
14778;SDS011;7481;53.750;10.570;2023-05-10T08:47:54;6.60;;;3.88;;
14778;SDS011;7481;53.750;10.570;2023-05-10T08:50:42;4.78;;;4.25;;
14778;SDS011;7481;53.750;10.570;2023-05-10T08:53:29;4.20;;;3.80;;
14778;SDS011;7481;53.750;10.570;2023-05-10T08:56:18;5.05;;;3.65;;
14778;SDS011;7481;53.750;10.570;2023-05-10T08:59:06;4.00;;;3.60;;
14778;SDS011;7481;53.750;10.570;2023-05-10T09:01:54;5.60;;;4.18;;
14778;SDS011;7481;53.750;10.570;2023-05-10T09:04:42;7.35;;;3.88;;
14778;SDS011;7481;53.750;10.570;2023-05-10T09:07:30;7.22;;;4.05;;
14778;SDS011;7481;53.750;10.570;2023-05-10T09:10:21;5.53;;;3.67;;
14778;SDS011;7481;53.750;10.570;2023-05-10T09:13:12;5.32;;;3.78;;
14778;SDS011;7481;53.750;10.570;2023-05-10T09:16:00;8.55;;;4.63;;
14778;SDS011;7481;53.750;10.570;2023-05-10T09:18:59;4.20;;;3.53;;
14778;SDS011;7481;53.750;10.570;2023-05-10T09:21:47;8.38;;;4.30;;
14778;SDS011;7481;53.750;10.570;2023-05-10T09:24:36;6.72;;;4.20;;
14778;SDS011;7481;53.750;10.570;2023-05-10T09:27:28;7.47;;;4.15;;
14778;SDS011;7481;53.750;10.570;2023-05-10T09:30:17;4.53;;;4.00;;
14778;SDS011;7481;53.750;10.570;2023-05-10T09:33:05;5.28;;;3.88;;
14778;SDS011;7481;53.750;10.570;2023-05-10T09:35:52;8.13;;;4.00;;
14778;SDS011;7481;53.750;10.570;2023-05-10T09:38:49;4.30;;;3.90;;
14778;SDS011;7481;53.750;10.570;2023-05-10T09:41:41;4.95;;;4.15;;
14778;SDS011;7481;53.750;10.570;2023-05-10T09:44:29;6.60;;;3.92;;
14778;SDS011;7481;53.750;10.570;2023-05-10T09:47:17;4.43;;;4.00;;
14778;SDS011;7481;53.750;10.570;2023-05-10T09:50:05;5.30;;;4.38;;
14778;SDS011;7481;53.750;10.570;2023-05-10T09:52:56;4.22;;;3.60;;
14778;SDS011;7481;53.750;10.570;2023-05-10T09:55:45;4.78;;;3.85;;
14778;SDS011;7481;53.750;10.570;2023-05-10T09:58:35;5.32;;;3.80;;
14778;SDS011;7481;53.750;10.570;2023-05-10T10:01:27;5.53;;;4.35;;
14778;SDS011;7481;53.750;10.570;2023-05-10T10:04:14;5.82;;;4.57;;
14778;SDS011;7481;53.750;10.570;2023-05-10T10:07:02;6.13;;;4.13;;
14778;SDS011;7481;53.750;10.570;2023-05-10T10:09:50;5.18;;;4.25;;
14778;SDS011;7481;53.750;10.570;2023-05-10T10:12:38;5.60;;;4.47;;
14778;SDS011;7481;53.750;10.570;2023-05-10T10:15:26;6.88;;;4.43;;
14778;SDS011;7481;53.750;10.570;2023-05-10T10:18:14;5.75;;;4.88;;
14778;SDS011;7481;53.750;10.570;2023-05-10T10:21:02;6.68;;;4.60;;
14778;SDS011;7481;53.750;10.570;2023-05-10T10:23:49;6.43;;;4.53;;
14778;SDS011;7481;53.750;10.570;2023-05-10T10:26:37;6.32;;;4.30;;
14778;SDS011;7481;53.750;10.570;2023-05-10T10:35:14;7.80;;;4.43;;
14778;SDS011;7481;53.750;10.570;2023-05-10T10:38:02;5.85;;;4.10;;
14778;SDS011;7481;53.750;10.570;2023-05-10T10:41:01;5.88;;;4.13;;
14778;SDS011;7481;53.750;10.570;2023-05-10T10:43:48;4.65;;;3.95;;
14778;SDS011;7481;53.750;10.570;2023-05-10T10:46:42;5.97;;;4.28;;
14778;SDS011;7481;53.750;10.570;2023-05-10T10:50:03;4.40;;;3.97;;
14778;SDS011;7481;53.750;10.570;2023-05-10T10:52:51;5.03;;;4.40;;
14778;SDS011;7481;53.750;10.570;2023-05-10T10:55:45;6.40;;;4.28;;
14778;SDS011;7481;53.750;10.570;2023-05-10T10:58:34;6.05;;;4.38;;
14778;SDS011;7481;53.750;10.570;2023-05-10T11:01:21;6.50;;;4.30;;
14778;SDS011;7481;53.750;10.570;2023-05-10T11:07:15;4.65;;;3.88;;
14778;SDS011;7481;53.750;10.570;2023-05-10T11:10:04;4.47;;;3.92;;
14778;SDS011;7481;53.750;10.570;2023-05-10T11:13:01;7.57;;;4.45;;
14778;SDS011;7481;53.750;10.570;2023-05-10T11:15:49;4.43;;;4.03;;
14778;SDS011;7481;53.750;10.570;2023-05-10T11:18:37;6.35;;;4.35;;
14778;SDS011;7481;53.750;10.570;2023-05-10T11:21:24;7.22;;;4.03;;
14778;SDS011;7481;53.750;10.570;2023-05-10T11:24:13;7.55;;;5.20;;
14778;SDS011;7481;53.750;10.570;2023-05-10T11:27:00;8.38;;;4.65;;
14778;SDS011;7481;53.750;10.570;2023-05-10T11:29:51;9.02;;;4.70;;
14778;SDS011;7481;53.750;10.570;2023-05-10T11:32:38;5.03;;;4.53;;
14778;SDS011;7481;53.750;10.570;2023-05-10T11:35:27;6.88;;;4.38;;
14778;SDS011;7481;53.750;10.570;2023-05-10T11:38:14;8.10;;;4.85;;
14778;SDS011;7481;53.750;10.570;2023-05-10T11:41:02;6.20;;;4.45;;
14778;SDS011;7481;53.750;10.570;2023-05-10T11:43:50;9.15;;;4.20;;
14778;SDS011;7481;53.750;10.570;2023-05-10T11:46:37;5.38;;;4.60;;
14778;SDS011;7481;53.750;10.570;2023-05-10T11:49:25;5.22;;;4.35;;
14778;SDS011;7481;53.750;10.570;2023-05-10T11:52:13;5.32;;;4.80;;
14778;SDS011;7481;53.750;10.570;2023-05-10T11:55:00;5.70;;;4.75;;
14778;SDS011;7481;53.750;10.570;2023-05-10T11:57:48;7.43;;;4.95;;
14778;SDS011;7481;53.750;10.570;2023-05-10T12:00:38;5.70;;;4.80;;
14778;SDS011;7481;53.750;10.570;2023-05-10T12:03:26;9.80;;;5.85;;
14778;SDS011;7481;53.750;10.570;2023-05-10T12:06:14;6.00;;;5.40;;
14778;SDS011;7481;53.750;10.570;2023-05-10T12:09:05;6.72;;;4.97;;
14778;SDS011;7481;53.750;10.570;2023-05-10T12:11:55;6.35;;;5.75;;
14778;SDS011;7481;53.750;10.570;2023-05-10T12:14:43;12.52;;;6.03;;
14778;SDS011;7481;53.750;10.570;2023-05-10T12:17:31;7.13;;;6.03;;
14778;SDS011;7481;53.750;10.570;2023-05-10T12:20:20;7.25;;;5.82;;
14778;SDS011;7481;53.750;10.570;2023-05-10T12:23:11;8.30;;;6.53;;
14778;SDS011;7481;53.750;10.570;2023-05-10T12:26:02;9.50;;;6.45;;
14778;SDS011;7481;53.750;10.570;2023-05-10T12:29:11;10.20;;;7.23;;
14778;SDS011;7481;53.750;10.570;2023-05-10T12:31:59;8.55;;;7.13;;
14778;SDS011;7481;53.750;10.570;2023-05-10T12:34:46;9.77;;;7.37;;
14778;SDS011;7481;53.750;10.570;2023-05-10T12:37:35;9.43;;;7.67;;
14778;SDS011;7481;53.750;10.570;2023-05-10T12:40:25;8.35;;;7.22;;
14778;SDS011;7481;53.750;10.570;2023-05-10T12:43:13;9.43;;;7.37;;
14778;SDS011;7481;53.750;10.570;2023-05-10T12:46:07;8.53;;;7.63;;
14778;SDS011;7481;53.750;10.570;2023-05-10T12:48:55;12.57;;;8.17;;
14778;SDS011;7481;53.750;10.570;2023-05-10T12:51:54;9.93;;;8.10;;
14778;SDS011;7481;53.750;10.570;2023-05-10T12:54:42;9.10;;;8.20;;
14778;SDS011;7481;53.750;10.570;2023-05-10T12:57:29;10.60;;;8.10;;
14778;SDS011;7481;53.750;10.570;2023-05-10T13:00:17;10.33;;;9.00;;
14778;SDS011;7481;53.750;10.570;2023-05-10T13:03:04;9.30;;;8.30;;
14778;SDS011;7481;53.750;10.570;2023-05-10T13:05:52;10.20;;;9.00;;
14778;SDS011;7481;53.750;10.570;2023-05-10T13:08:39;10.10;;;9.00;;
14778;SDS011;7481;53.750;10.570;2023-05-10T13:11:27;10.33;;;8.87;;
14778;SDS011;7481;53.750;10.570;2023-05-10T13:14:14;10.47;;;9.00;;
14778;SDS011;7481;53.750;10.570;2023-05-10T13:17:01;10.30;;;9.10;;
14778;SDS011;7481;53.750;10.570;2023-05-10T13:19:49;10.20;;;9.10;;
14778;SDS011;7481;53.750;10.570;2023-05-10T13:22:36;12.17;;;9.30;;
14778;SDS011;7481;53.750;10.570;2023-05-10T13:25:26;11.67;;;9.40;;
14778;SDS011;7481;53.750;10.570;2023-05-10T13:28:13;11.87;;;9.60;;
14778;SDS011;7481;53.750;10.570;2023-05-10T13:31:01;11.10;;;8.67;;
14778;SDS011;7481;53.750;10.570;2023-05-10T13:33:48;10.33;;;8.83;;
14778;SDS011;7481;53.750;10.570;2023-05-10T13:36:36;10.33;;;9.07;;
14778;SDS011;7481;53.750;10.570;2023-05-10T13:39:23;10.27;;;8.50;;
14778;SDS011;7481;53.750;10.570;2023-05-10T13:42:11;9.93;;;8.00;;
14778;SDS011;7481;53.750;10.570;2023-05-10T13:44:58;8.57;;;7.63;;
14778;SDS011;7481;53.750;10.570;2023-05-10T13:47:47;8.53;;;7.63;;
14778;SDS011;7481;53.750;10.570;2023-05-10T13:50:34;9.30;;;8.20;;
14778;SDS011;7481;53.750;10.570;2023-05-10T13:53:22;9.37;;;7.70;;
14778;SDS011;7481;53.750;10.570;2023-05-10T13:56:09;7.87;;;7.07;;
14778;SDS011;7481;53.750;10.570;2023-05-10T13:58:57;8.90;;;7.63;;
14778;SDS011;7481;53.750;10.570;2023-05-10T14:01:44;8.00;;;6.90;;
14778;SDS011;7481;53.750;10.570;2023-05-10T14:04:32;7.30;;;6.53;;
14778;SDS011;7481;53.750;10.570;2023-05-10T14:07:21;8.37;;;7.10;;
14778;SDS011;7481;53.750;10.570;2023-05-10T14:10:09;8.57;;;6.53;;
14778;SDS011;7481;53.750;10.570;2023-05-10T14:12:56;7.77;;;6.97;;
14778;SDS011;7481;53.750;10.570;2023-05-10T14:15:44;7.80;;;7.00;;
14778;SDS011;7481;53.750;10.570;2023-05-10T14:18:31;7.27;;;6.53;;
14778;SDS011;7481;53.750;10.570;2023-05-10T14:21:19;8.17;;;6.80;;
14778;SDS011;7481;53.750;10.570;2023-05-10T14:24:06;7.07;;;6.37;;
14778;SDS011;7481;53.750;10.570;2023-05-10T14:26:53;8.23;;;6.78;;
14778;SDS011;7481;53.750;10.570;2023-05-10T14:29:41;7.23;;;6.53;;
14778;SDS011;7481;53.750;10.570;2023-05-10T14:32:28;8.15;;;6.75;;
14778;SDS011;7481;53.750;10.570;2023-05-10T14:35:18;8.05;;;6.88;;
14778;SDS011;7481;53.750;10.570;2023-05-10T14:38:05;6.15;;;5.55;;
14778;SDS011;7481;53.750;10.570;2023-05-10T14:40:53;7.25;;;6.18;;
14778;SDS011;7481;53.750;10.570;2023-05-10T14:43:40;6.15;;;4.03;;
14778;SDS011;7481;53.750;10.570;2023-05-10T14:46:28;5.03;;;3.33;;
14778;SDS011;7481;53.750;10.570;2023-05-10T14:49:16;4.57;;;3.22;;
14778;SDS011;7481;53.750;10.570;2023-05-10T14:52:03;3.60;;;2.97;;
14778;SDS011;7481;53.750;10.570;2023-05-10T14:54:51;3.40;;;3.10;;
14778;SDS011;7481;53.750;10.570;2023-05-10T14:57:38;2.85;;;2.55;;
14778;SDS011;7481;53.750;10.570;2023-05-10T15:00:26;3.42;;;2.70;;
14778;SDS011;7481;53.750;10.570;2023-05-10T15:03:15;1.70;;;1.60;;
14778;SDS011;7481;53.750;10.570;2023-05-10T15:06:03;2.40;;;2.05;;
14778;SDS011;7481;53.750;10.570;2023-05-10T15:08:51;2.30;;;2.10;;
14778;SDS011;7481;53.750;10.570;2023-05-10T15:11:38;2.55;;;2.35;;
14778;SDS011;7481;53.750;10.570;2023-05-10T15:14:25;2.95;;;2.05;;
14778;SDS011;7481;53.750;10.570;2023-05-10T15:17:13;2.10;;;2.00;;
14778;SDS011;7481;53.750;10.570;2023-05-10T15:20:01;1.98;;;1.77;;
14778;SDS011;7481;53.750;10.570;2023-05-10T15:22:51;2.50;;;2.30;;
14778;SDS011;7481;53.750;10.570;2023-05-10T15:25:38;1.92;;;1.83;;
14778;SDS011;7481;53.750;10.570;2023-05-10T15:28:26;2.80;;;2.00;;
14778;SDS011;7481;53.750;10.570;2023-05-10T15:31:13;2.15;;;1.95;;
14778;SDS011;7481;53.750;10.570;2023-05-10T15:34:01;1.65;;;1.55;;
14778;SDS011;7481;53.750;10.570;2023-05-10T15:36:48;2.30;;;1.80;;
14778;SDS011;7481;53.750;10.570;2023-05-10T15:39:36;2.47;;;2.28;;
14778;SDS011;7481;53.750;10.570;2023-05-10T15:42:23;2.08;;;1.88;;
14778;SDS011;7481;53.750;10.570;2023-05-10T15:45:11;2.65;;;2.30;;
14778;SDS011;7481;53.750;10.570;2023-05-10T15:47:58;2.40;;;2.20;;
14778;SDS011;7481;53.750;10.570;2023-05-10T15:50:45;2.28;;;1.98;;
14778;SDS011;7481;53.750;10.570;2023-05-10T15:53:33;4.57;;;2.20;;
14778;SDS011;7481;53.750;10.570;2023-05-10T15:56:21;4.13;;;2.45;;
14778;SDS011;7481;53.750;10.570;2023-05-10T15:59:08;2.50;;;2.30;;
14778;SDS011;7481;53.750;10.570;2023-05-10T16:01:57;2.20;;;2.00;;
14778;SDS011;7481;53.750;10.570;2023-05-10T16:04:44;3.83;;;2.40;;
14778;SDS011;7481;53.750;10.570;2023-05-10T16:07:32;3.20;;;2.60;;
14778;SDS011;7481;53.750;10.570;2023-05-10T16:10:19;3.90;;;2.63;;
14778;SDS011;7481;53.750;10.570;2023-05-10T16:13:07;3.13;;;2.40;;
14778;SDS011;7481;53.750;10.570;2023-05-10T16:15:54;3.38;;;2.30;;
14778;SDS011;7481;53.750;10.570;2023-05-10T16:18:43;5.25;;;2.72;;
14778;SDS011;7481;53.750;10.570;2023-05-10T16:21:31;2.47;;;2.22;;
14778;SDS011;7481;53.750;10.570;2023-05-10T16:24:18;2.55;;;2.35;;
14778;SDS011;7481;53.750;10.570;2023-05-10T16:27:06;2.60;;;2.38;;
14778;SDS011;7481;53.750;10.570;2023-05-10T16:29:54;2.80;;;2.60;;
14778;SDS011;7481;53.750;10.570;2023-05-10T16:32:41;3.42;;;2.60;;
14778;SDS011;7481;53.750;10.570;2023-05-10T16:35:28;3.15;;;2.70;;
14778;SDS011;7481;53.750;10.570;2023-05-10T16:38:16;4.32;;;2.80;;
14778;SDS011;7481;53.750;10.570;2023-05-10T16:41:03;3.10;;;2.42;;
14778;SDS011;7481;53.750;10.570;2023-05-10T16:43:52;2.88;;;2.67;;
14778;SDS011;7481;53.750;10.570;2023-05-10T16:46:39;3.63;;;3.30;;
14778;SDS011;7481;53.750;10.570;2023-05-10T16:49:27;2.95;;;2.65;;
14778;SDS011;7481;53.750;10.570;2023-05-10T16:52:14;4.03;;;3.00;;
14778;SDS011;7481;53.750;10.570;2023-05-10T16:55:02;2.97;;;2.67;;
14778;SDS011;7481;53.750;10.570;2023-05-10T16:57:50;3.88;;;3.47;;
14778;SDS011;7481;53.750;10.570;2023-05-10T17:00:37;3.47;;;3.05;;
14778;SDS011;7481;53.750;10.570;2023-05-10T17:03:24;3.97;;;2.70;;
14778;SDS011;7481;53.750;10.570;2023-05-10T17:06:12;3.10;;;2.80;;
14778;SDS011;7481;53.750;10.570;2023-05-10T17:08:59;3.08;;;2.78;;
14778;SDS011;7481;53.750;10.570;2023-05-10T17:11:47;3.88;;;2.75;;
14778;SDS011;7481;53.750;10.570;2023-05-10T17:14:35;2.78;;;2.58;;
14778;SDS011;7481;53.750;10.570;2023-05-10T17:17:23;3.65;;;3.13;;
14778;SDS011;7481;53.750;10.570;2023-05-10T17:20:11;3.10;;;2.63;;
14778;SDS011;7481;53.750;10.570;2023-05-10T17:22:58;3.55;;;2.78;;
14778;SDS011;7481;53.750;10.570;2023-05-10T17:25:48;3.22;;;2.90;;